sensor_id;sensor_type;location;lat;lon;timestamp;P1;P2;P0
69123;PMS5003;56232;53.384;-2.732;2024-02-16T00:01:03;4;4;
69123;PMS5003;56232;53.384;-2.732;2024-02-16T00:03:29;9;9;
69123;PMS5003;56232;53.384;-2.732;2024-02-16T00:05:55;13;13;
69123;PMS5003;56232;53.384;-2.732;2024-02-16T00:08:20;5;5;
69123;PMS5003;56232;53.384;-2.732;2024-02-16T00:10:46;4;4;
69123;PMS5003;56232;53.384;-2.732;2024-02-16T00:13:12;6;6;
69123;PMS5003;56232;53.384;-2.732;2024-02-16T00:15:37;6;6;
69123;PMS5003;56232;53.384;-2.732;2024-02-16T00:18:03;5;5;
69123;PMS5003;56232;53.384;-2.732;2024-02-16T00:20:29;5;5;
69123;PMS5003;56232;53.384;-2.732;2024-02-16T00:22:54;6;6;
69123;PMS5003;56232;53.384;-2.732;2024-02-16T00:25:20;5;5;
69123;PMS5003;56232;53.384;-2.732;2024-02-16T00:27:45;6;6;
69123;PMS5003;56232;53.384;-2.732;2024-02-16T00:30:11;5;4;
69123;PMS5003;56232;53.384;-2.732;2024-02-16T00:32:37;8;8;
69123;PMS5003;56232;53.384;-2.732;2024-02-16T00:35:02;6;6;
69123;PMS5003;56232;53.384;-2.732;2024-02-16T00:37:28;5;5;
69123;PMS5003;56232;53.384;-2.732;2024-02-16T00:39:53;6;6;
69123;PMS5003;56232;53.384;-2.732;2024-02-16T00:42:19;8;8;
69123;PMS5003;56232;53.384;-2.732;2024-02-16T00:44:45;7;7;
69123;PMS5003;56232;53.384;-2.732;2024-02-16T00:47:10;5;5;
69123;PMS5003;56232;53.384;-2.732;2024-02-16T00:49:36;6;6;
69123;PMS5003;56232;53.384;-2.732;2024-02-16T00:52:02;7;6;
69123;PMS5003;56232;53.384;-2.732;2024-02-16T00:54:27;6;6;
69123;PMS5003;56232;53.384;-2.732;2024-02-16T00:56:53;7;7;
69123;PMS5003;56232;53.384;-2.732;2024-02-16T00:59:18;5;5;
69123;PMS5003;56232;53.384;-2.732;2024-02-16T01:01:45;5;5;
69123;PMS5003;56232;53.384;-2.732;2024-02-16T01:04:10;4;4;
69123;PMS5003;56232;53.384;-2.732;2024-02-16T01:06:36;6;6;
69123;PMS5003;56232;53.384;-2.732;2024-02-16T01:09:01;6;6;
69123;PMS5003;56232;53.384;-2.732;2024-02-16T01:11:27;5;5;
69123;PMS5003;56232;53.384;-2.732;2024-02-16T01:13:52;6;5;
69123;PMS5003;56232;53.384;-2.732;2024-02-16T01:16:18;6;6;
69123;PMS5003;56232;53.384;-2.732;2024-02-16T01:18:44;7;7;
69123;PMS5003;56232;53.384;-2.732;2024-02-16T01:21:09;5;5;
69123;PMS5003;56232;53.384;-2.732;2024-02-16T01:23:35;5;5;
69123;PMS5003;56232;53.384;-2.732;2024-02-16T01:26:00;6;6;
69123;PMS5003;56232;53.384;-2.732;2024-02-16T01:28:26;6;6;
69123;PMS5003;56232;53.384;-2.732;2024-02-16T01:30:52;6;6;
69123;PMS5003;56232;53.384;-2.732;2024-02-16T01:33:19;6;6;
69123;PMS5003;56232;53.384;-2.732;2024-02-16T01:35:43;5;5;
69123;PMS5003;56232;53.384;-2.732;2024-02-16T01:38:09;5;5;
69123;PMS5003;56232;53.384;-2.732;2024-02-16T01:40:35;5;5;
69123;PMS5003;56232;53.384;-2.732;2024-02-16T01:43:00;6;6;
69123;PMS5003;56232;53.384;-2.732;2024-02-16T01:45:25;5;5;
69123;PMS5003;56232;53.384;-2.732;2024-02-16T01:47:51;5;5;
69123;PMS5003;56232;53.384;-2.732;2024-02-16T01:50:17;4;4;
69123;PMS5003;56232;53.384;-2.732;2024-02-16T01:52:42;4;4;
69123;PMS5003;56232;53.384;-2.732;2024-02-16T01:55:08;4;3;
69123;PMS5003;56232;53.384;-2.732;2024-02-16T01:57:34;5;5;
69123;PMS5003;56232;53.384;-2.732;2024-02-16T01:59:59;5;5;
69123;PMS5003;56232;53.384;-2.732;2024-02-16T02:02:25;4;4;
69123;PMS5003;56232;53.384;-2.732;2024-02-16T02:04:50;5;5;
69123;PMS5003;56232;53.384;-2.732;2024-02-16T02:07:16;6;6;
69123;PMS5003;56232;53.384;-2.732;2024-02-16T02:09:42;8;8;
69123;PMS5003;56232;53.384;-2.732;2024-02-16T02:12:07;5;4;
69123;PMS5003;56232;53.384;-2.732;2024-02-16T02:14:33;6;6;
69123;PMS5003;56232;53.384;-2.732;2024-02-16T02:16:58;5;5;
69123;PMS5003;56232;53.384;-2.732;2024-02-16T02:19:24;6;6;
69123;PMS5003;56232;53.384;-2.732;2024-02-16T02:21:50;7;6;
69123;PMS5003;56232;53.384;-2.732;2024-02-16T02:24:15;7;6;
69123;PMS5003;56232;53.384;-2.732;2024-02-16T02:26:41;6;5;
69123;PMS5003;56232;53.384;-2.732;2024-02-16T02:29:06;5;5;
69123;PMS5003;56232;53.384;-2.732;2024-02-16T02:31:32;8;6;
69123;PMS5003;56232;53.384;-2.732;2024-02-16T02:33:58;6;6;
69123;PMS5003;56232;53.384;-2.732;2024-02-16T02:36:23;6;6;
69123;PMS5003;56232;53.384;-2.732;2024-02-16T02:38:49;5;5;
69123;PMS5003;56232;53.384;-2.732;2024-02-16T02:41:15;6;6;
69123;PMS5003;56232;53.384;-2.732;2024-02-16T02:43:40;6;5;
69123;PMS5003;56232;53.384;-2.732;2024-02-16T02:46:06;5;5;
69123;PMS5003;56232;53.384;-2.732;2024-02-16T02:48:32;7;6;
69123;PMS5003;56232;53.384;-2.732;2024-02-16T02:50:57;7;6;
69123;PMS5003;56232;53.384;-2.732;2024-02-16T02:53:23;8;7;
69123;PMS5003;56232;53.384;-2.732;2024-02-16T02:55:48;6;6;
69123;PMS5003;56232;53.384;-2.732;2024-02-16T02:58:14;7;6;
69123;PMS5003;56232;53.384;-2.732;2024-02-16T03:00:39;8;7;
69123;PMS5003;56232;53.384;-2.732;2024-02-16T03:03:05;8;7;
69123;PMS5003;56232;53.384;-2.732;2024-02-16T03:05:30;7;6;
69123;PMS5003;56232;53.384;-2.732;2024-02-16T03:07:56;7;6;
69123;PMS5003;56232;53.384;-2.732;2024-02-16T03:10:22;7;7;
69123;PMS5003;56232;53.384;-2.732;2024-02-16T03:12:47;6;6;
69123;PMS5003;56232;53.384;-2.732;2024-02-16T03:15:13;8;8;
69123;PMS5003;56232;53.384;-2.732;2024-02-16T03:17:39;6;6;
69123;PMS5003;56232;53.384;-2.732;2024-02-16T03:20:05;6;6;
69123;PMS5003;56232;53.384;-2.732;2024-02-16T03:22:30;5;5;
69123;PMS5003;56232;53.384;-2.732;2024-02-16T03:24:56;8;8;
69123;PMS5003;56232;53.384;-2.732;2024-02-16T03:27:21;7;7;
69123;PMS5003;56232;53.384;-2.732;2024-02-16T03:29:47;8;8;
69123;PMS5003;56232;53.384;-2.732;2024-02-16T03:32:13;4;4;
69123;PMS5003;56232;53.384;-2.732;2024-02-16T03:34:38;7;6;
69123;PMS5003;56232;53.384;-2.732;2024-02-16T03:37:04;5;5;
69123;PMS5003;56232;53.384;-2.732;2024-02-16T03:39:29;7;7;
69123;PMS5003;56232;53.384;-2.732;2024-02-16T03:41:55;5;5;
69123;PMS5003;56232;53.384;-2.732;2024-02-16T03:44:21;6;6;
69123;PMS5003;56232;53.384;-2.732;2024-02-16T03:46:46;5;5;
69123;PMS5003;56232;53.384;-2.732;2024-02-16T03:49:12;6;6;
69123;PMS5003;56232;53.384;-2.732;2024-02-16T03:51:37;6;6;
69123;PMS5003;56232;53.384;-2.732;2024-02-16T03:54:03;4;4;
69123;PMS5003;56232;53.384;-2.732;2024-02-16T03:56:28;5;5;
69123;PMS5003;56232;53.384;-2.732;2024-02-16T03:58:54;4;4;
69123;PMS5003;56232;53.384;-2.732;2024-02-16T04:01:20;4;4;
69123;PMS5003;56232;53.384;-2.732;2024-02-16T04:03:45;3;3;
69123;PMS5003;56232;53.384;-2.732;2024-02-16T04:06:11;5;5;
69123;PMS5003;56232;53.384;-2.732;2024-02-16T04:08:37;4;4;
69123;PMS5003;56232;53.384;-2.732;2024-02-16T04:11:02;5;5;
69123;PMS5003;56232;53.384;-2.732;2024-02-16T04:13:28;6;6;
69123;PMS5003;56232;53.384;-2.732;2024-02-16T04:15:54;3;3;
69123;PMS5003;56232;53.384;-2.732;2024-02-16T04:18:19;3;3;
69123;PMS5003;56232;53.384;-2.732;2024-02-16T04:20:45;3;2;
69123;PMS5003;56232;53.384;-2.732;2024-02-16T04:23:11;3;3;
69123;PMS5003;56232;53.384;-2.732;2024-02-16T04:25:37;4;3;
69123;PMS5003;56232;53.384;-2.732;2024-02-16T04:28:02;4;4;
69123;PMS5003;56232;53.384;-2.732;2024-02-16T04:30:28;5;5;
69123;PMS5003;56232;53.384;-2.732;2024-02-16T04:32:53;4;3;
69123;PMS5003;56232;53.384;-2.732;2024-02-16T04:35:19;4;4;
69123;PMS5003;56232;53.384;-2.732;2024-02-16T04:37:45;4;4;
69123;PMS5003;56232;53.384;-2.732;2024-02-16T04:40:11;6;5;
69123;PMS5003;56232;53.384;-2.732;2024-02-16T04:42:36;3;3;
69123;PMS5003;56232;53.384;-2.732;2024-02-16T04:45:01;3;3;
69123;PMS5003;56232;53.384;-2.732;2024-02-16T04:47:27;3;3;
69123;PMS5003;56232;53.384;-2.732;2024-02-16T04:49:53;5;5;
69123;PMS5003;56232;53.384;-2.732;2024-02-16T04:52:18;4;4;
69123;PMS5003;56232;53.384;-2.732;2024-02-16T04:54:44;4;4;
69123;PMS5003;56232;53.384;-2.732;2024-02-16T04:57:10;6;5;
69123;PMS5003;56232;53.384;-2.732;2024-02-16T04:59:36;2;2;
69123;PMS5003;56232;53.384;-2.732;2024-02-16T05:02:01;3;3;
69123;PMS5003;56232;53.384;-2.732;2024-02-16T05:04:26;4;4;
69123;PMS5003;56232;53.384;-2.732;2024-02-16T05:06:52;4;4;
69123;PMS5003;56232;53.384;-2.732;2024-02-16T05:09:18;3;3;
69123;PMS5003;56232;53.384;-2.732;2024-02-16T05:11:43;5;4;
69123;PMS5003;56232;53.384;-2.732;2024-02-16T05:14:09;4;3;
69123;PMS5003;56232;53.384;-2.732;2024-02-16T05:16:35;5;5;
69123;PMS5003;56232;53.384;-2.732;2024-02-16T05:19:00;5;4;
69123;PMS5003;56232;53.384;-2.732;2024-02-16T05:21:26;4;4;
69123;PMS5003;56232;53.384;-2.732;2024-02-16T05:23:52;4;4;
69123;PMS5003;56232;53.384;-2.732;2024-02-16T05:26:17;4;4;
69123;PMS5003;56232;53.384;-2.732;2024-02-16T05:28:43;3;3;
69123;PMS5003;56232;53.384;-2.732;2024-02-16T05:31:13;4;3;
69123;PMS5003;56232;53.384;-2.732;2024-02-16T05:33:35;4;4;
69123;PMS5003;56232;53.384;-2.732;2024-02-16T05:36:00;3;3;
69123;PMS5003;56232;53.384;-2.732;2024-02-16T05:38:26;3;3;
69123;PMS5003;56232;53.384;-2.732;2024-02-16T05:40:51;3;3;
69123;PMS5003;56232;53.384;-2.732;2024-02-16T05:43:17;4;4;
69123;PMS5003;56232;53.384;-2.732;2024-02-16T05:45:43;4;4;
69123;PMS5003;56232;53.384;-2.732;2024-02-16T05:48:08;3;2;
69123;PMS5003;56232;53.384;-2.732;2024-02-16T05:50:34;3;3;
69123;PMS5003;56232;53.384;-2.732;2024-02-16T05:53:00;3;3;
69123;PMS5003;56232;53.384;-2.732;2024-02-16T05:55:25;3;3;
69123;PMS5003;56232;53.384;-2.732;2024-02-16T05:57:51;3;3;
69123;PMS5003;56232;53.384;-2.732;2024-02-16T06:00:17;3;3;
69123;PMS5003;56232;53.384;-2.732;2024-02-16T06:02:42;3;3;
69123;PMS5003;56232;53.384;-2.732;2024-02-16T06:05:08;2;2;
69123;PMS5003;56232;53.384;-2.732;2024-02-16T06:07:35;3;3;
69123;PMS5003;56232;53.384;-2.732;2024-02-16T06:09:59;3;3;
69123;PMS5003;56232;53.384;-2.732;2024-02-16T06:12:25;4;3;
69123;PMS5003;56232;53.384;-2.732;2024-02-16T06:14:51;3;2;
69123;PMS5003;56232;53.384;-2.732;2024-02-16T06:17:16;3;3;
69123;PMS5003;56232;53.384;-2.732;2024-02-16T06:19:42;3;3;
69123;PMS5003;56232;53.384;-2.732;2024-02-16T06:22:08;3;3;
69123;PMS5003;56232;53.384;-2.732;2024-02-16T06:24:33;2;2;
69123;PMS5003;56232;53.384;-2.732;2024-02-16T06:26:59;3;3;
69123;PMS5003;56232;53.384;-2.732;2024-02-16T06:29:25;2;2;
69123;PMS5003;56232;53.384;-2.732;2024-02-16T06:31:50;4;4;
69123;PMS5003;56232;53.384;-2.732;2024-02-16T06:34:16;3;3;
69123;PMS5003;56232;53.384;-2.732;2024-02-16T06:36:41;2;2;
69123;PMS5003;56232;53.384;-2.732;2024-02-16T06:39:07;3;3;
69123;PMS5003;56232;53.384;-2.732;2024-02-16T06:41:33;2;2;
69123;PMS5003;56232;53.384;-2.732;2024-02-16T06:43:58;5;5;
69123;PMS5003;56232;53.384;-2.732;2024-02-16T06:46:24;4;4;
69123;PMS5003;56232;53.384;-2.732;2024-02-16T06:48:50;4;4;
69123;PMS5003;56232;53.384;-2.732;2024-02-16T06:51:15;4;4;
69123;PMS5003;56232;53.384;-2.732;2024-02-16T06:53:41;5;4;
69123;PMS5003;56232;53.384;-2.732;2024-02-16T06:56:07;4;4;
69123;PMS5003;56232;53.384;-2.732;2024-02-16T06:58:32;4;4;
69123;PMS5003;56232;53.384;-2.732;2024-02-16T07:00:58;5;5;
69123;PMS5003;56232;53.384;-2.732;2024-02-16T07:03:24;5;5;
69123;PMS5003;56232;53.384;-2.732;2024-02-16T07:05:49;5;4;
69123;PMS5003;56232;53.384;-2.732;2024-02-16T07:08:15;3;2;
69123;PMS5003;56232;53.384;-2.732;2024-02-16T07:10:41;4;4;
69123;PMS5003;56232;53.384;-2.732;2024-02-16T07:13:06;3;3;
69123;PMS5003;56232;53.384;-2.732;2024-02-16T07:15:32;2;2;
69123;PMS5003;56232;53.384;-2.732;2024-02-16T07:17:58;5;4;
69123;PMS5003;56232;53.384;-2.732;2024-02-16T07:20:23;4;4;
69123;PMS5003;56232;53.384;-2.732;2024-02-16T07:22:49;2;2;
69123;PMS5003;56232;53.384;-2.732;2024-02-16T07:25:14;3;3;
69123;PMS5003;56232;53.384;-2.732;2024-02-16T07:27:40;3;3;
69123;PMS5003;56232;53.384;-2.732;2024-02-16T07:30:06;3;3;
69123;PMS5003;56232;53.384;-2.732;2024-02-16T07:32:31;3;2;
69123;PMS5003;56232;53.384;-2.732;2024-02-16T07:34:57;3;3;
69123;PMS5003;56232;53.384;-2.732;2024-02-16T07:37:23;4;3;
69123;PMS5003;56232;53.384;-2.732;2024-02-16T07:39:48;4;4;
69123;PMS5003;56232;53.384;-2.732;2024-02-16T07:42:14;3;3;
69123;PMS5003;56232;53.384;-2.732;2024-02-16T07:44:40;5;4;
69123;PMS5003;56232;53.384;-2.732;2024-02-16T07:47:05;5;5;
69123;PMS5003;56232;53.384;-2.732;2024-02-16T07:49:31;4;3;
69123;PMS5003;56232;53.384;-2.732;2024-02-16T07:51:57;3;3;
69123;PMS5003;56232;53.384;-2.732;2024-02-16T07:54:23;4;4;
69123;PMS5003;56232;53.384;-2.732;2024-02-16T07:56:48;4;3;
69123;PMS5003;56232;53.384;-2.732;2024-02-16T07:59:14;5;5;
69123;PMS5003;56232;53.384;-2.732;2024-02-16T08:01:39;3;3;
69123;PMS5003;56232;53.384;-2.732;2024-02-16T08:04:05;5;5;
69123;PMS5003;56232;53.384;-2.732;2024-02-16T08:06:31;4;4;
69123;PMS5003;56232;53.384;-2.732;2024-02-16T08:08:56;5;5;
69123;PMS5003;56232;53.384;-2.732;2024-02-16T08:11:22;5;5;
69123;PMS5003;56232;53.384;-2.732;2024-02-16T08:13:48;7;6;
69123;PMS5003;56232;53.384;-2.732;2024-02-16T08:16:13;6;6;
69123;PMS5003;56232;53.384;-2.732;2024-02-16T08:18:39;7;6;
69123;PMS5003;56232;53.384;-2.732;2024-02-16T08:21:05;7;7;
69123;PMS5003;56232;53.384;-2.732;2024-02-16T08:23:30;6;6;
69123;PMS5003;56232;53.384;-2.732;2024-02-16T08:25:56;9;8;
69123;PMS5003;56232;53.384;-2.732;2024-02-16T08:28:21;7;7;
69123;PMS5003;56232;53.384;-2.732;2024-02-16T08:30:47;6;4;
69123;PMS5003;56232;53.384;-2.732;2024-02-16T08:33:13;7;7;
69123;PMS5003;56232;53.384;-2.732;2024-02-16T08:35:38;8;8;
69123;PMS5003;56232;53.384;-2.732;2024-02-16T08:38:04;7;7;
69123;PMS5003;56232;53.384;-2.732;2024-02-16T08:40:30;9;8;
69123;PMS5003;56232;53.384;-2.732;2024-02-16T08:42:55;5;5;
69123;PMS5003;56232;53.384;-2.732;2024-02-16T08:45:21;8;8;
69123;PMS5003;56232;53.384;-2.732;2024-02-16T08:47:47;5;5;
69123;PMS5003;56232;53.384;-2.732;2024-02-16T08:50:12;5;5;
69123;PMS5003;56232;53.384;-2.732;2024-02-16T08:52:38;6;6;
69123;PMS5003;56232;53.384;-2.732;2024-02-16T08:55:04;4;3;
69123;PMS5003;56232;53.384;-2.732;2024-02-16T08:57:31;5;5;
69123;PMS5003;56232;53.384;-2.732;2024-02-16T08:59:55;4;4;
69123;PMS5003;56232;53.384;-2.732;2024-02-16T09:02:21;5;5;
69123;PMS5003;56232;53.384;-2.732;2024-02-16T09:04:46;4;4;
69123;PMS5003;56232;53.384;-2.732;2024-02-16T09:07:12;3;3;
69123;PMS5003;56232;53.384;-2.732;2024-02-16T09:09:38;5;4;
69123;PMS5003;56232;53.384;-2.732;2024-02-16T09:12:03;6;6;
69123;PMS5003;56232;53.384;-2.732;2024-02-16T09:14:29;4;4;
69123;PMS5003;56232;53.384;-2.732;2024-02-16T09:16:54;9;9;
69123;PMS5003;56232;53.384;-2.732;2024-02-16T09:19:20;5;5;
69123;PMS5003;56232;53.384;-2.732;2024-02-16T09:21:46;6;6;
69123;PMS5003;56232;53.384;-2.732;2024-02-16T09:24:12;7;7;
69123;PMS5003;56232;53.384;-2.732;2024-02-16T09:26:37;10;9;
69123;PMS5003;56232;53.384;-2.732;2024-02-16T09:29:03;6;6;
69123;PMS5003;56232;53.384;-2.732;2024-02-16T09:31:28;7;6;
69123;PMS5003;56232;53.384;-2.732;2024-02-16T09:33:54;6;6;
69123;PMS5003;56232;53.384;-2.732;2024-02-16T09:36:20;3;3;
69123;PMS5003;56232;53.384;-2.732;2024-02-16T09:38:46;4;4;
69123;PMS5003;56232;53.384;-2.732;2024-02-16T09:41:11;3;3;
69123;PMS5003;56232;53.384;-2.732;2024-02-16T09:43:37;4;3;
69123;PMS5003;56232;53.384;-2.732;2024-02-16T09:46:02;4;3;
69123;PMS5003;56232;53.384;-2.732;2024-02-16T09:48:28;4;3;
69123;PMS5003;56232;53.384;-2.732;2024-02-16T09:50:53;4;4;
69123;PMS5003;56232;53.384;-2.732;2024-02-16T09:53:19;3;3;
69123;PMS5003;56232;53.384;-2.732;2024-02-16T09:55:44;3;3;
69123;PMS5003;56232;53.384;-2.732;2024-02-16T09:58:10;7;5;
69123;PMS5003;56232;53.384;-2.732;2024-02-16T10:00:36;5;5;
69123;PMS5003;56232;53.384;-2.732;2024-02-16T10:03:01;4;4;
69123;PMS5003;56232;53.384;-2.732;2024-02-16T10:05:27;2;2;
69123;PMS5003;56232;53.384;-2.732;2024-02-16T10:07:52;4;3;
69123;PMS5003;56232;53.384;-2.732;2024-02-16T10:10:19;4;4;
69123;PMS5003;56232;53.384;-2.732;2024-02-16T10:12:44;3;3;
69123;PMS5003;56232;53.384;-2.732;2024-02-16T10:15:09;3;3;
69123;PMS5003;56232;53.384;-2.732;2024-02-16T10:17:35;4;4;
69123;PMS5003;56232;53.384;-2.732;2024-02-16T10:20:01;4;4;
69123;PMS5003;56232;53.384;-2.732;2024-02-16T10:22:26;3;3;
69123;PMS5003;56232;53.384;-2.732;2024-02-16T10:24:52;5;5;
69123;PMS5003;56232;53.384;-2.732;2024-02-16T10:27:17;5;4;
69123;PMS5003;56232;53.384;-2.732;2024-02-16T10:29:43;2;2;
69123;PMS5003;56232;53.384;-2.732;2024-02-16T10:32:09;5;5;
69123;PMS5003;56232;53.384;-2.732;2024-02-16T10:34:35;4;3;
69123;PMS5003;56232;53.384;-2.732;2024-02-16T10:37:00;3;3;
69123;PMS5003;56232;53.384;-2.732;2024-02-16T10:39:25;4;4;
69123;PMS5003;56232;53.384;-2.732;2024-02-16T10:41:51;4;4;
69123;PMS5003;56232;53.384;-2.732;2024-02-16T10:44:17;4;4;
69123;PMS5003;56232;53.384;-2.732;2024-02-16T10:46:47;3;2;
69123;PMS5003;56232;53.384;-2.732;2024-02-16T10:49:08;5;4;
69123;PMS5003;56232;53.384;-2.732;2024-02-16T10:51:35;5;4;
69123;PMS5003;56232;53.384;-2.732;2024-02-16T10:53:59;4;4;
69123;PMS5003;56232;53.384;-2.732;2024-02-16T10:56:26;3;3;
69123;PMS5003;56232;53.384;-2.732;2024-02-16T10:58:50;1;1;
69123;PMS5003;56232;53.384;-2.732;2024-02-16T11:01:16;4;3;
69123;PMS5003;56232;53.384;-2.732;2024-02-16T11:03:41;3;3;
69123;PMS5003;56232;53.384;-2.732;2024-02-16T11:08:33;5;5;
69123;PMS5003;56232;53.384;-2.732;2024-02-16T11:10:59;5;5;
69123;PMS5003;56232;53.384;-2.732;2024-02-16T11:13:24;5;5;
69123;PMS5003;56232;53.384;-2.732;2024-02-16T11:18:15;4;4;
69123;PMS5003;56232;53.384;-2.732;2024-02-16T11:20:41;4;3;
69123;PMS5003;56232;53.384;-2.732;2024-02-16T11:23:08;3;3;
69123;PMS5003;56232;53.384;-2.732;2024-02-16T11:25:32;2;2;
69123;PMS5003;56232;53.384;-2.732;2024-02-16T11:27:58;1;1;
69123;PMS5003;56232;53.384;-2.732;2024-02-16T11:30:23;3;3;
69123;PMS5003;56232;53.384;-2.732;2024-02-16T11:32:49;0;0;
69123;PMS5003;56232;53.384;-2.732;2024-02-16T11:35:14;1;1;
69123;PMS5003;56232;53.384;-2.732;2024-02-16T11:37:40;1;1;
69123;PMS5003;56232;53.384;-2.732;2024-02-16T11:40:06;2;2;
69123;PMS5003;56232;53.384;-2.732;2024-02-16T11:42:31;2;2;
69123;PMS5003;56232;53.384;-2.732;2024-02-16T11:44:57;1;1;
69123;PMS5003;56232;53.384;-2.732;2024-02-16T11:47:24;1;1;
69123;PMS5003;56232;53.384;-2.732;2024-02-16T11:49:48;1;1;
69123;PMS5003;56232;53.384;-2.732;2024-02-16T11:52:14;1;1;
69123;PMS5003;56232;53.384;-2.732;2024-02-16T11:54:43;0;0;
69123;PMS5003;56232;53.384;-2.732;2024-02-16T11:57:05;1;1;
69123;PMS5003;56232;53.384;-2.732;2024-02-16T11:59:30;2;1;
69123;PMS5003;56232;53.384;-2.732;2024-02-16T12:01:57;1;1;
69123;PMS5003;56232;53.384;-2.732;2024-02-16T12:04:22;0;0;
69123;PMS5003;56232;53.384;-2.732;2024-02-16T12:06:47;1;1;
69123;PMS5003;56232;53.384;-2.732;2024-02-16T12:09:14;1;1;
69123;PMS5003;56232;53.384;-2.732;2024-02-16T12:11:39;0;0;
69123;PMS5003;56232;53.384;-2.732;2024-02-16T12:14:04;2;2;
69123;PMS5003;56232;53.384;-2.732;2024-02-16T12:16:30;1;1;
69123;PMS5003;56232;53.384;-2.732;2024-02-16T12:21:21;0;0;
69123;PMS5003;56232;53.384;-2.732;2024-02-16T12:23:47;0;0;
69123;PMS5003;56232;53.384;-2.732;2024-02-16T12:26:12;0;0;
69123;PMS5003;56232;53.384;-2.732;2024-02-16T12:28:38;0;0;
69123;PMS5003;56232;53.384;-2.732;2024-02-16T12:31:03;1;1;
69123;PMS5003;56232;53.384;-2.732;2024-02-16T12:33:29;0;0;
69123;PMS5003;56232;53.384;-2.732;2024-02-16T12:35:55;0;0;
69123;PMS5003;56232;53.384;-2.732;2024-02-16T12:38:20;0;0;
69123;PMS5003;56232;53.384;-2.732;2024-02-16T12:40:46;0;0;
69123;PMS5003;56232;53.384;-2.732;2024-02-16T12:43:11;1;1;
69123;PMS5003;56232;53.384;-2.732;2024-02-16T12:45:37;0;0;
69123;PMS5003;56232;53.384;-2.732;2024-02-16T12:48:03;0;0;
69123;PMS5003;56232;53.384;-2.732;2024-02-16T12:50:28;0;0;
69123;PMS5003;56232;53.384;-2.732;2024-02-16T12:52:54;1;1;
69123;PMS5003;56232;53.384;-2.732;2024-02-16T12:55:19;1;1;
69123;PMS5003;56232;53.384;-2.732;2024-02-16T12:57:45;0;0;
69123;PMS5003;56232;53.384;-2.732;2024-02-16T13:00:11;1;1;
69123;PMS5003;56232;53.384;-2.732;2024-02-16T13:02:37;0;0;
69123;PMS5003;56232;53.384;-2.732;2024-02-16T13:05:02;0;0;
69123;PMS5003;56232;53.384;-2.732;2024-02-16T13:07:27;1;1;
69123;PMS5003;56232;53.384;-2.732;2024-02-16T13:09:53;0;0;
69123;PMS5003;56232;53.384;-2.732;2024-02-16T13:12:19;0;0;
69123;PMS5003;56232;53.384;-2.732;2024-02-16T13:14:44;1;0;
69123;PMS5003;56232;53.384;-2.732;2024-02-16T13:17:10;2;2;
69123;PMS5003;56232;53.384;-2.732;2024-02-16T13:19:36;0;0;
69123;PMS5003;56232;53.384;-2.732;2024-02-16T13:22:01;1;1;
69123;PMS5003;56232;53.384;-2.732;2024-02-16T13:24:27;1;1;
69123;PMS5003;56232;53.384;-2.732;2024-02-16T13:26:52;2;2;
69123;PMS5003;56232;53.384;-2.732;2024-02-16T13:29:18;0;0;
69123;PMS5003;56232;53.384;-2.732;2024-02-16T13:31:43;0;0;
69123;PMS5003;56232;53.384;-2.732;2024-02-16T13:34:09;2;2;
69123;PMS5003;56232;53.384;-2.732;2024-02-16T13:36:35;1;1;
69123;PMS5003;56232;53.384;-2.732;2024-02-16T13:39:00;0;0;
69123;PMS5003;56232;53.384;-2.732;2024-02-16T13:41:26;0;0;
69123;PMS5003;56232;53.384;-2.732;2024-02-16T13:43:51;1;1;
69123;PMS5003;56232;53.384;-2.732;2024-02-16T13:46:17;0;0;
69123;PMS5003;56232;53.384;-2.732;2024-02-16T13:48:43;0;0;
69123;PMS5003;56232;53.384;-2.732;2024-02-16T13:51:08;1;1;
69123;PMS5003;56232;53.384;-2.732;2024-02-16T13:53:35;0;0;
69123;PMS5003;56232;53.384;-2.732;2024-02-16T13:55:59;0;0;
69123;PMS5003;56232;53.384;-2.732;2024-02-16T13:58:25;0;0;
69123;PMS5003;56232;53.384;-2.732;2024-02-16T14:00:51;0;0;
69123;PMS5003;56232;53.384;-2.732;2024-02-16T14:03:16;1;0;
69123;PMS5003;56232;53.384;-2.732;2024-02-16T14:05:42;0;0;
69123;PMS5003;56232;53.384;-2.732;2024-02-16T14:08:07;1;1;
69123;PMS5003;56232;53.384;-2.732;2024-02-16T14:10:33;1;1;
69123;PMS5003;56232;53.384;-2.732;2024-02-16T14:12:59;1;1;
69123;PMS5003;56232;53.384;-2.732;2024-02-16T14:15:24;1;1;
69123;PMS5003;56232;53.384;-2.732;2024-02-16T14:17:50;1;1;
69123;PMS5003;56232;53.384;-2.732;2024-02-16T14:20:16;1;1;
69123;PMS5003;56232;53.384;-2.732;2024-02-16T14:22:41;0;0;
69123;PMS5003;56232;53.384;-2.732;2024-02-16T14:25:07;0;0;
69123;PMS5003;56232;53.384;-2.732;2024-02-16T14:27:32;0;0;
69123;PMS5003;56232;53.384;-2.732;2024-02-16T14:29:59;0;0;
69123;PMS5003;56232;53.384;-2.732;2024-02-16T14:32:24;1;1;
69123;PMS5003;56232;53.384;-2.732;2024-02-16T14:34:49;0;0;
69123;PMS5003;56232;53.384;-2.732;2024-02-16T14:37:15;1;1;
69123;PMS5003;56232;53.384;-2.732;2024-02-16T14:39:41;1;1;
69123;PMS5003;56232;53.384;-2.732;2024-02-16T14:42:06;1;1;
69123;PMS5003;56232;53.384;-2.732;2024-02-16T14:44:32;0;0;
69123;PMS5003;56232;53.384;-2.732;2024-02-16T14:46:58;1;1;
69123;PMS5003;56232;53.384;-2.732;2024-02-16T14:49:23;0;0;
69123;PMS5003;56232;53.384;-2.732;2024-02-16T14:51:49;1;1;
69123;PMS5003;56232;53.384;-2.732;2024-02-16T14:54:14;1;1;
69123;PMS5003;56232;53.384;-2.732;2024-02-16T14:56:40;0;0;
69123;PMS5003;56232;53.384;-2.732;2024-02-16T14:59:05;0;0;
69123;PMS5003;56232;53.384;-2.732;2024-02-16T15:01:31;1;0;
69123;PMS5003;56232;53.384;-2.732;2024-02-16T15:03:56;1;1;
69123;PMS5003;56232;53.384;-2.732;2024-02-16T15:06:22;0;0;
69123;PMS5003;56232;53.384;-2.732;2024-02-16T15:08:48;1;1;
69123;PMS5003;56232;53.384;-2.732;2024-02-16T15:11:13;0;0;
69123;PMS5003;56232;53.384;-2.732;2024-02-16T15:13:39;1;1;
69123;PMS5003;56232;53.384;-2.732;2024-02-16T15:16:05;0;0;
69123;PMS5003;56232;53.384;-2.732;2024-02-16T15:18:30;0;0;
69123;PMS5003;56232;53.384;-2.732;2024-02-16T15:20:56;2;1;
69123;PMS5003;56232;53.384;-2.732;2024-02-16T15:23:22;0;0;
69123;PMS5003;56232;53.384;-2.732;2024-02-16T15:25:47;0;0;
69123;PMS5003;56232;53.384;-2.732;2024-02-16T15:28:13;2;1;
69123;PMS5003;56232;53.384;-2.732;2024-02-16T15:30:38;0;0;
69123;PMS5003;56232;53.384;-2.732;2024-02-16T15:33:04;0;0;
69123;PMS5003;56232;53.384;-2.732;2024-02-16T15:35:29;0;0;
69123;PMS5003;56232;53.384;-2.732;2024-02-16T15:37:55;0;0;
69123;PMS5003;56232;53.384;-2.732;2024-02-16T15:40:20;0;0;
69123;PMS5003;56232;53.384;-2.732;2024-02-16T15:45:12;1;0;
69123;PMS5003;56232;53.384;-2.732;2024-02-16T15:47:37;0;0;
69123;PMS5003;56232;53.384;-2.732;2024-02-16T15:50:03;0;0;
69123;PMS5003;56232;53.384;-2.732;2024-02-16T15:52:29;2;2;
69123;PMS5003;56232;53.384;-2.732;2024-02-16T15:54:54;0;0;
69123;PMS5003;56232;53.384;-2.732;2024-02-16T15:57:19;0;0;
69123;PMS5003;56232;53.384;-2.732;2024-02-16T15:59:45;0;0;
69123;PMS5003;56232;53.384;-2.732;2024-02-16T16:02:11;0;0;
69123;PMS5003;56232;53.384;-2.732;2024-02-16T16:04:37;1;1;
69123;PMS5003;56232;53.384;-2.732;2024-02-16T16:07:02;1;1;
69123;PMS5003;56232;53.384;-2.732;2024-02-16T16:09:27;1;1;
69123;PMS5003;56232;53.384;-2.732;2024-02-16T16:11:53;2;2;
69123;PMS5003;56232;53.384;-2.732;2024-02-16T16:14:19;1;1;
69123;PMS5003;56232;53.384;-2.732;2024-02-16T16:16:44;0;0;
69123;PMS5003;56232;53.384;-2.732;2024-02-16T16:19:10;2;2;
69123;PMS5003;56232;53.384;-2.732;2024-02-16T16:21:36;0;0;
69123;PMS5003;56232;53.384;-2.732;2024-02-16T16:24:01;0;0;
69123;PMS5003;56232;53.384;-2.732;2024-02-16T16:26:27;0;0;
69123;PMS5003;56232;53.384;-2.732;2024-02-16T16:28:52;1;1;
69123;PMS5003;56232;53.384;-2.732;2024-02-16T16:31:18;1;1;